sensor_id;sensor_type;location;lat;lon;timestamp;P1;durP1;ratioP1;P2;durP2;ratioP2
3141;SDS011;1581;51.568;6.998;2023-03-23T00:01:15;6.47;;;2.60;;
3141;SDS011;1581;51.568;6.998;2023-03-23T00:03:46;8.70;;;3.00;;
3141;SDS011;1581;51.568;6.998;2023-03-23T00:06:16;5.37;;;2.90;;
3141;SDS011;1581;51.568;6.998;2023-03-23T00:08:46;4.97;;;2.80;;
3141;SDS011;1581;51.568;6.998;2023-03-23T00:11:19;5.03;;;2.60;;
3141;SDS011;1581;51.568;6.998;2023-03-23T00:13:50;6.57;;;2.60;;
3141;SDS011;1581;51.568;6.998;2023-03-23T00:16:19;5.17;;;2.40;;
3141;SDS011;1581;51.568;6.998;2023-03-23T00:18:54;2.50;;;1.70;;
3141;SDS011;1581;51.568;6.998;2023-03-23T00:21:24;4.20;;;2.03;;
3141;SDS011;1581;51.568;6.998;2023-03-23T00:24:00;7.00;;;2.70;;
3141;SDS011;1581;51.568;6.998;2023-03-23T00:26:31;4.53;;;2.07;;
3141;SDS011;1581;51.568;6.998;2023-03-23T00:29:03;3.10;;;2.50;;
3141;SDS011;1581;51.568;6.998;2023-03-23T00:31:31;4.13;;;2.20;;
3141;SDS011;1581;51.568;6.998;2023-03-23T00:34:01;5.90;;;2.83;;
3141;SDS011;1581;51.568;6.998;2023-03-23T00:36:30;4.43;;;2.50;;
3141;SDS011;1581;51.568;6.998;2023-03-23T00:39:00;12.33;;;2.53;;
3141;SDS011;1581;51.568;6.998;2023-03-23T00:41:29;8.30;;;2.07;;
3141;SDS011;1581;51.568;6.998;2023-03-23T00:43:58;3.13;;;1.70;;
3141;SDS011;1581;51.568;6.998;2023-03-23T00:46:28;3.27;;;1.70;;
3141;SDS011;1581;51.568;6.998;2023-03-23T00:48:56;2.63;;;1.77;;
3141;SDS011;1581;51.568;6.998;2023-03-23T00:51:24;6.93;;;2.47;;
3141;SDS011;1581;51.568;6.998;2023-03-23T00:53:52;5.37;;;1.60;;
3141;SDS011;1581;51.568;6.998;2023-03-23T00:56:20;2.80;;;1.80;;
3141;SDS011;1581;51.568;6.998;2023-03-23T00:58:48;1.37;;;1.30;;
3141;SDS011;1581;51.568;6.998;2023-03-23T01:01:16;3.07;;;1.93;;
3141;SDS011;1581;51.568;6.998;2023-03-23T01:03:45;4.63;;;2.43;;
3141;SDS011;1581;51.568;6.998;2023-03-23T01:06:14;4.00;;;2.43;;
3141;SDS011;1581;51.568;6.998;2023-03-23T01:08:42;3.53;;;1.73;;
3141;SDS011;1581;51.568;6.998;2023-03-23T01:11:12;8.67;;;2.03;;
3141;SDS011;1581;51.568;6.998;2023-03-23T01:13:43;3.27;;;2.07;;
3141;SDS011;1581;51.568;6.998;2023-03-23T01:16:11;2.80;;;2.00;;
3141;SDS011;1581;51.568;6.998;2023-03-23T01:18:40;3.03;;;1.90;;
3141;SDS011;1581;51.568;6.998;2023-03-23T01:21:09;2.63;;;2.13;;
3141;SDS011;1581;51.568;6.998;2023-03-23T01:23:39;3.87;;;2.20;;
3141;SDS011;1581;51.568;6.998;2023-03-23T01:26:07;2.00;;;1.80;;
3141;SDS011;1581;51.568;6.998;2023-03-23T01:28:37;2.10;;;1.83;;
3141;SDS011;1581;51.568;6.998;2023-03-23T01:31:06;6.20;;;1.90;;
3141;SDS011;1581;51.568;6.998;2023-03-23T01:33:38;4.30;;;2.07;;
3141;SDS011;1581;51.568;6.998;2023-03-23T01:36:07;6.00;;;1.80;;
3141;SDS011;1581;51.568;6.998;2023-03-23T01:38:39;4.50;;;2.00;;
3141;SDS011;1581;51.568;6.998;2023-03-23T01:41:08;2.10;;;1.90;;
3141;SDS011;1581;51.568;6.998;2023-03-23T01:46:26;4.70;;;2.10;;
3141;SDS011;1581;51.568;6.998;2023-03-23T01:48:57;2.80;;;2.40;;
3141;SDS011;1581;51.568;6.998;2023-03-23T01:51:35;2.03;;;1.60;;
3141;SDS011;1581;51.568;6.998;2023-03-23T01:54:09;3.83;;;1.90;;
3141;SDS011;1581;51.568;6.998;2023-03-23T01:56:46;2.10;;;2.00;;
3141;SDS011;1581;51.568;6.998;2023-03-23T01:59:18;2.70;;;1.77;;
3141;SDS011;1581;51.568;6.998;2023-03-23T02:01:49;1.70;;;1.60;;
3141;SDS011;1581;51.568;6.998;2023-03-23T02:04:17;2.67;;;1.77;;
3141;SDS011;1581;51.568;6.998;2023-03-23T02:06:48;4.30;;;1.70;;
3141;SDS011;1581;51.568;6.998;2023-03-23T02:09:16;3.60;;;1.87;;
3141;SDS011;1581;51.568;6.998;2023-03-23T02:11:44;2.67;;;2.00;;
3141;SDS011;1581;51.568;6.998;2023-03-23T02:14:15;1.63;;;1.27;;
3141;SDS011;1581;51.568;6.998;2023-03-23T02:16:44;1.43;;;1.40;;
3141;SDS011;1581;51.568;6.998;2023-03-23T02:19:22;2.33;;;1.70;;
3141;SDS011;1581;51.568;6.998;2023-03-23T02:25:55;1.50;;;1.40;;
3141;SDS011;1581;51.568;6.998;2023-03-23T02:28:37;4.10;;;2.13;;
3141;SDS011;1581;51.568;6.998;2023-03-23T02:31:43;1.57;;;1.40;;
3141;SDS011;1581;51.568;6.998;2023-03-23T02:34:25;1.53;;;1.43;;
3141;SDS011;1581;51.568;6.998;2023-03-23T02:36:58;2.40;;;1.80;;
3141;SDS011;1581;51.568;6.998;2023-03-23T02:39:30;2.03;;;1.93;;
3141;SDS011;1581;51.568;6.998;2023-03-23T02:42:05;1.70;;;1.60;;
3141;SDS011;1581;51.568;6.998;2023-03-23T02:44:36;2.53;;;2.10;;
3141;SDS011;1581;51.568;6.998;2023-03-23T02:47:10;2.07;;;1.70;;
3141;SDS011;1581;51.568;6.998;2023-03-23T02:49:43;3.93;;;1.93;;
3141;SDS011;1581;51.568;6.998;2023-03-23T02:52:15;3.30;;;1.83;;
3141;SDS011;1581;51.568;6.998;2023-03-23T02:54:47;4.20;;;2.03;;
3141;SDS011;1581;51.568;6.998;2023-03-23T02:57:17;3.60;;;2.27;;
3141;SDS011;1581;51.568;6.998;2023-03-23T02:59:46;1.93;;;1.80;;
3141;SDS011;1581;51.568;6.998;2023-03-23T03:02:14;2.43;;;1.63;;
3141;SDS011;1581;51.568;6.998;2023-03-23T03:04:51;2.63;;;1.33;;
3141;SDS011;1581;51.568;6.998;2023-03-23T03:07:36;1.50;;;1.40;;
3141;SDS011;1581;51.568;6.998;2023-03-23T03:10:23;3.90;;;2.00;;
3141;SDS011;1581;51.568;6.998;2023-03-23T03:12:55;2.70;;;2.20;;
3141;SDS011;1581;51.568;6.998;2023-03-23T03:15:30;3.00;;;1.80;;
3141;SDS011;1581;51.568;6.998;2023-03-23T03:18:05;4.53;;;2.17;;
3141;SDS011;1581;51.568;6.998;2023-03-23T03:20:43;4.57;;;2.33;;
3141;SDS011;1581;51.568;6.998;2023-03-23T03:23:13;4.37;;;2.23;;
3141;SDS011;1581;51.568;6.998;2023-03-23T03:25:42;2.60;;;2.00;;
3141;SDS011;1581;51.568;6.998;2023-03-23T03:30:46;3.90;;;1.60;;
3141;SDS011;1581;51.568;6.998;2023-03-23T03:33:19;3.20;;;1.83;;
3141;SDS011;1581;51.568;6.998;2023-03-23T03:35:52;3.83;;;2.20;;
3141;SDS011;1581;51.568;6.998;2023-03-23T03:38:22;3.00;;;1.87;;
3141;SDS011;1581;51.568;6.998;2023-03-23T03:40:50;4.00;;;2.60;;
3141;SDS011;1581;51.568;6.998;2023-03-23T03:43:18;3.40;;;2.03;;
3141;SDS011;1581;51.568;6.998;2023-03-23T03:45:46;2.80;;;2.53;;
3141;SDS011;1581;51.568;6.998;2023-03-23T03:48:13;2.40;;;1.67;;
3141;SDS011;1581;51.568;6.998;2023-03-23T03:50:41;1.67;;;1.57;;
3141;SDS011;1581;51.568;6.998;2023-03-23T03:53:10;1.67;;;1.57;;
3141;SDS011;1581;51.568;6.998;2023-03-23T03:55:38;1.80;;;1.60;;
3141;SDS011;1581;51.568;6.998;2023-03-23T03:58:10;2.40;;;2.00;;
3141;SDS011;1581;51.568;6.998;2023-03-23T04:00:38;4.23;;;2.03;;
3141;SDS011;1581;51.568;6.998;2023-03-23T04:03:06;2.37;;;2.13;;
3141;SDS011;1581;51.568;6.998;2023-03-23T04:05:34;3.70;;;1.50;;
3141;SDS011;1581;51.568;6.998;2023-03-23T04:08:03;2.13;;;1.50;;
3141;SDS011;1581;51.568;6.998;2023-03-23T04:10:32;1.50;;;1.40;;
3141;SDS011;1581;51.568;6.998;2023-03-23T04:13:00;4.40;;;1.80;;
3141;SDS011;1581;51.568;6.998;2023-03-23T04:15:29;4.80;;;1.50;;
3141;SDS011;1581;51.568;6.998;2023-03-23T04:17:57;5.73;;;1.57;;
3141;SDS011;1581;51.568;6.998;2023-03-23T04:20:25;1.70;;;1.60;;
3141;SDS011;1581;51.568;6.998;2023-03-23T04:22:52;2.67;;;1.70;;
3141;SDS011;1581;51.568;6.998;2023-03-23T04:25:20;2.40;;;1.40;;
3141;SDS011;1581;51.568;6.998;2023-03-23T04:27:50;1.50;;;1.40;;
3141;SDS011;1581;51.568;6.998;2023-03-23T04:30:19;3.67;;;1.60;;
3141;SDS011;1581;51.568;6.998;2023-03-23T04:32:49;2.00;;;1.53;;
3141;SDS011;1581;51.568;6.998;2023-03-23T04:35:20;5.50;;;1.73;;
3141;SDS011;1581;51.568;6.998;2023-03-23T04:37:51;1.37;;;1.27;;
3141;SDS011;1581;51.568;6.998;2023-03-23T04:40:20;4.57;;;1.50;;
3141;SDS011;1581;51.568;6.998;2023-03-23T04:42:50;4.67;;;2.13;;
3141;SDS011;1581;51.568;6.998;2023-03-23T04:45:22;1.90;;;1.80;;
3141;SDS011;1581;51.568;6.998;2023-03-23T04:47:51;1.80;;;1.70;;
3141;SDS011;1581;51.568;6.998;2023-03-23T04:50:23;1.47;;;1.37;;
3141;SDS011;1581;51.568;6.998;2023-03-23T04:52:56;2.17;;;1.93;;
3141;SDS011;1581;51.568;6.998;2023-03-23T04:55:24;1.80;;;1.70;;
3141;SDS011;1581;51.568;6.998;2023-03-23T04:57:54;1.40;;;1.30;;
3141;SDS011;1581;51.568;6.998;2023-03-23T05:00:25;1.63;;;1.53;;
3141;SDS011;1581;51.568;6.998;2023-03-23T05:02:53;3.10;;;2.00;;
3141;SDS011;1581;51.568;6.998;2023-03-23T05:05:22;2.50;;;1.70;;
3141;SDS011;1581;51.568;6.998;2023-03-23T05:07:52;1.50;;;1.40;;
3141;SDS011;1581;51.568;6.998;2023-03-23T05:10:20;1.60;;;1.50;;
3141;SDS011;1581;51.568;6.998;2023-03-23T05:12:48;2.10;;;1.50;;
3141;SDS011;1581;51.568;6.998;2023-03-23T05:15:18;3.73;;;2.00;;
3141;SDS011;1581;51.568;6.998;2023-03-23T05:17:46;1.57;;;1.47;;
3141;SDS011;1581;51.568;6.998;2023-03-23T05:20:15;1.67;;;1.40;;
3141;SDS011;1581;51.568;6.998;2023-03-23T05:22:45;3.60;;;1.80;;
3141;SDS011;1581;51.568;6.998;2023-03-23T05:25:14;1.60;;;1.50;;
3141;SDS011;1581;51.568;6.998;2023-03-23T05:27:44;1.47;;;1.37;;
3141;SDS011;1581;51.568;6.998;2023-03-23T05:30:16;3.07;;;1.50;;
3141;SDS011;1581;51.568;6.998;2023-03-23T05:32:46;2.00;;;1.73;;
3141;SDS011;1581;51.568;6.998;2023-03-23T05:35:15;2.73;;;2.53;;
3141;SDS011;1581;51.568;6.998;2023-03-23T05:37:44;1.40;;;1.30;;
3141;SDS011;1581;51.568;6.998;2023-03-23T05:40:12;1.40;;;1.30;;
3141;SDS011;1581;51.568;6.998;2023-03-23T05:42:40;1.70;;;1.60;;
3141;SDS011;1581;51.568;6.998;2023-03-23T05:45:10;2.97;;;1.87;;
3141;SDS011;1581;51.568;6.998;2023-03-23T05:47:40;2.23;;;1.70;;
3141;SDS011;1581;51.568;6.998;2023-03-23T05:50:08;4.20;;;1.77;;
3141;SDS011;1581;51.568;6.998;2023-03-23T05:52:38;2.70;;;1.77;;
3141;SDS011;1581;51.568;6.998;2023-03-23T05:55:09;3.90;;;2.40;;
3141;SDS011;1581;51.568;6.998;2023-03-23T05:57:40;4.33;;;2.30;;
3141;SDS011;1581;51.568;6.998;2023-03-23T06:00:08;2.47;;;1.60;;
3141;SDS011;1581;51.568;6.998;2023-03-23T06:02:47;3.60;;;1.77;;
3141;SDS011;1581;51.568;6.998;2023-03-23T06:05:16;1.93;;;1.43;;
3141;SDS011;1581;51.568;6.998;2023-03-23T06:07:45;4.50;;;1.80;;
3141;SDS011;1581;51.568;6.998;2023-03-23T06:10:14;7.90;;;1.70;;
3141;SDS011;1581;51.568;6.998;2023-03-23T06:12:42;1.67;;;1.57;;
3141;SDS011;1581;51.568;6.998;2023-03-23T06:15:11;2.97;;;1.70;;
3141;SDS011;1581;51.568;6.998;2023-03-23T06:17:39;2.60;;;2.10;;
3141;SDS011;1581;51.568;6.998;2023-03-23T06:20:11;2.90;;;1.80;;
3141;SDS011;1581;51.568;6.998;2023-03-23T06:22:40;3.40;;;1.63;;
3141;SDS011;1581;51.568;6.998;2023-03-23T06:25:09;1.97;;;1.70;;
3141;SDS011;1581;51.568;6.998;2023-03-23T06:27:38;2.03;;;1.73;;
3141;SDS011;1581;51.568;6.998;2023-03-23T06:30:06;2.20;;;2.00;;
3141;SDS011;1581;51.568;6.998;2023-03-23T06:32:37;1.70;;;1.60;;
3141;SDS011;1581;51.568;6.998;2023-03-23T06:35:05;5.50;;;2.60;;
3141;SDS011;1581;51.568;6.998;2023-03-23T06:37:36;2.27;;;2.07;;
3141;SDS011;1581;51.568;6.998;2023-03-23T06:40:04;8.63;;;2.10;;
3141;SDS011;1581;51.568;6.998;2023-03-23T06:42:35;4.50;;;2.10;;
3141;SDS011;1581;51.568;6.998;2023-03-23T06:45:03;8.70;;;2.60;;
3141;SDS011;1581;51.568;6.998;2023-03-23T06:47:33;3.40;;;1.90;;
3141;SDS011;1581;51.568;6.998;2023-03-23T06:50:01;2.13;;;1.63;;
3141;SDS011;1581;51.568;6.998;2023-03-23T06:52:29;1.63;;;1.53;;
3141;SDS011;1581;51.568;6.998;2023-03-23T06:54:58;3.47;;;1.70;;
3141;SDS011;1581;51.568;6.998;2023-03-23T06:57:26;2.10;;;1.90;;
3141;SDS011;1581;51.568;6.998;2023-03-23T06:59:54;2.60;;;1.90;;
3141;SDS011;1581;51.568;6.998;2023-03-23T07:02:21;7.40;;;2.03;;
3141;SDS011;1581;51.568;6.998;2023-03-23T07:04:51;3.30;;;1.80;;
3141;SDS011;1581;51.568;6.998;2023-03-23T07:07:19;5.07;;;2.27;;
3141;SDS011;1581;51.568;6.998;2023-03-23T07:09:47;2.73;;;1.70;;
3141;SDS011;1581;51.568;6.998;2023-03-23T07:12:16;2.37;;;1.83;;
3141;SDS011;1581;51.568;6.998;2023-03-23T07:14:44;6.67;;;1.60;;
3141;SDS011;1581;51.568;6.998;2023-03-23T07:17:11;6.67;;;2.30;;
3141;SDS011;1581;51.568;6.998;2023-03-23T07:19:40;3.80;;;1.73;;
3141;SDS011;1581;51.568;6.998;2023-03-23T07:22:07;5.73;;;2.23;;
3141;SDS011;1581;51.568;6.998;2023-03-23T07:24:35;10.37;;;2.40;;
3141;SDS011;1581;51.568;6.998;2023-03-23T07:27:03;5.30;;;1.67;;
3141;SDS011;1581;51.568;6.998;2023-03-23T07:29:32;9.47;;;2.37;;
3141;SDS011;1581;51.568;6.998;2023-03-23T07:32:03;2.23;;;1.67;;
3141;SDS011;1581;51.568;6.998;2023-03-23T07:34:32;9.40;;;1.73;;
3141;SDS011;1581;51.568;6.998;2023-03-23T07:37:00;5.03;;;2.00;;
3141;SDS011;1581;51.568;6.998;2023-03-23T07:39:27;2.37;;;1.80;;
3141;SDS011;1581;51.568;6.998;2023-03-23T07:41:55;4.73;;;1.40;;
3141;SDS011;1581;51.568;6.998;2023-03-23T07:44:23;3.20;;;2.00;;
3141;SDS011;1581;51.568;6.998;2023-03-23T07:46:52;2.80;;;1.70;;
3141;SDS011;1581;51.568;6.998;2023-03-23T07:49:20;2.70;;;1.63;;
3141;SDS011;1581;51.568;6.998;2023-03-23T07:51:48;6.63;;;1.57;;
3141;SDS011;1581;51.568;6.998;2023-03-23T07:54:15;2.37;;;1.47;;
3141;SDS011;1581;51.568;6.998;2023-03-23T07:56:43;4.73;;;2.20;;
3141;SDS011;1581;51.568;6.998;2023-03-23T07:59:12;2.80;;;1.43;;
3141;SDS011;1581;51.568;6.998;2023-03-23T08:01:40;7.50;;;2.53;;
3141;SDS011;1581;51.568;6.998;2023-03-23T08:04:10;4.43;;;1.67;;
3141;SDS011;1581;51.568;6.998;2023-03-23T08:06:38;3.80;;;1.50;;
3141;SDS011;1581;51.568;6.998;2023-03-23T08:09:07;9.50;;;2.17;;
3141;SDS011;1581;51.568;6.998;2023-03-23T08:11:35;4.07;;;1.90;;
3141;SDS011;1581;51.568;6.998;2023-03-23T08:14:03;5.33;;;1.90;;
3141;SDS011;1581;51.568;6.998;2023-03-23T08:16:31;4.73;;;1.70;;
3141;SDS011;1581;51.568;6.998;2023-03-23T08:19:02;3.23;;;1.30;;
3141;SDS011;1581;51.568;6.998;2023-03-23T08:21:31;4.10;;;1.30;;
3141;SDS011;1581;51.568;6.998;2023-03-23T08:24:00;3.27;;;1.67;;
3141;SDS011;1581;51.568;6.998;2023-03-23T08:26:28;4.77;;;1.67;;
3141;SDS011;1581;51.568;6.998;2023-03-23T08:28:56;2.77;;;1.73;;
3141;SDS011;1581;51.568;6.998;2023-03-23T08:31:23;5.40;;;1.50;;
3141;SDS011;1581;51.568;6.998;2023-03-23T08:33:52;2.90;;;1.30;;
3141;SDS011;1581;51.568;6.998;2023-03-23T08:36:21;2.30;;;1.30;;
3141;SDS011;1581;51.568;6.998;2023-03-23T08:38:51;4.30;;;1.47;;
3141;SDS011;1581;51.568;6.998;2023-03-23T08:41:18;4.27;;;1.90;;
3141;SDS011;1581;51.568;6.998;2023-03-23T08:43:47;3.90;;;1.60;;
3141;SDS011;1581;51.568;6.998;2023-03-23T08:46:15;2.50;;;2.07;;
3141;SDS011;1581;51.568;6.998;2023-03-23T08:48:44;3.53;;;1.20;;
3141;SDS011;1581;51.568;6.998;2023-03-23T08:51:12;3.07;;;1.60;;
3141;SDS011;1581;51.568;6.998;2023-03-23T08:53:40;3.07;;;1.33;;
3141;SDS011;1581;51.568;6.998;2023-03-23T08:56:15;2.00;;;1.10;;
3141;SDS011;1581;51.568;6.998;2023-03-23T08:58:49;4.37;;;1.53;;
3141;SDS011;1581;51.568;6.998;2023-03-23T09:01:18;7.27;;;1.53;;
3141;SDS011;1581;51.568;6.998;2023-03-23T09:03:46;4.03;;;1.50;;
3141;SDS011;1581;51.568;6.998;2023-03-23T09:06:14;3.27;;;1.40;;
3141;SDS011;1581;51.568;6.998;2023-03-23T09:08:42;7.13;;;1.73;;
3141;SDS011;1581;51.568;6.998;2023-03-23T09:11:12;6.43;;;1.60;;
3141;SDS011;1581;51.568;6.998;2023-03-23T09:13:40;4.10;;;1.67;;
3141;SDS011;1581;51.568;6.998;2023-03-23T09:16:30;6.03;;;2.10;;
3141;SDS011;1581;51.568;6.998;2023-03-23T09:18:59;2.40;;;1.73;;
3141;SDS011;1581;51.568;6.998;2023-03-23T09:21:28;4.57;;;1.50;;
3141;SDS011;1581;51.568;6.998;2023-03-23T09:24:01;6.37;;;1.70;;
3141;SDS011;1581;51.568;6.998;2023-03-23T09:26:31;7.07;;;2.00;;
3141;SDS011;1581;51.568;6.998;2023-03-23T09:28:59;3.63;;;1.43;;
3141;SDS011;1581;51.568;6.998;2023-03-23T09:31:34;4.70;;;1.47;;
3141;SDS011;1581;51.568;6.998;2023-03-23T09:34:03;4.20;;;1.83;;
3141;SDS011;1581;51.568;6.998;2023-03-23T09:36:31;4.97;;;2.03;;
3141;SDS011;1581;51.568;6.998;2023-03-23T09:39:04;9.00;;;1.57;;
3141;SDS011;1581;51.568;6.998;2023-03-23T09:41:45;5.10;;;1.20;;
3141;SDS011;1581;51.568;6.998;2023-03-23T09:44:48;7.30;;;1.00;;
3141;SDS011;1581;51.568;6.998;2023-03-23T09:47:30;2.00;;;1.37;;
3141;SDS011;1581;51.568;6.998;2023-03-23T09:50:09;7.10;;;1.00;;
3141;SDS011;1581;51.568;6.998;2023-03-23T09:52:46;9.40;;;1.30;;
3141;SDS011;1581;51.568;6.998;2023-03-23T09:55:32;3.67;;;0.90;;
3141;SDS011;1581;51.568;6.998;2023-03-23T09:58:08;8.67;;;1.47;;
3141;SDS011;1581;51.568;6.998;2023-03-23T10:00:44;6.93;;;1.20;;
3141;SDS011;1581;51.568;6.998;2023-03-23T10:03:26;7.83;;;1.17;;
3141;SDS011;1581;51.568;6.998;2023-03-23T10:06:00;3.93;;;1.27;;
3141;SDS011;1581;51.568;6.998;2023-03-23T10:08:30;3.70;;;1.37;;
3141;SDS011;1581;51.568;6.998;2023-03-23T10:11:00;2.60;;;1.30;;
3141;SDS011;1581;51.568;6.998;2023-03-23T10:13:44;3.10;;;1.43;;
3141;SDS011;1581;51.568;6.998;2023-03-23T10:16:31;10.30;;;1.50;;
3141;SDS011;1581;51.568;6.998;2023-03-23T10:19:09;4.67;;;1.27;;
3141;SDS011;1581;51.568;6.998;2023-03-23T10:21:44;3.07;;;1.17;;
3141;SDS011;1581;51.568;6.998;2023-03-23T10:24:19;4.63;;;1.70;;
3141;SDS011;1581;51.568;6.998;2023-03-23T10:26:54;4.63;;;1.90;;
3141;SDS011;1581;51.568;6.998;2023-03-23T10:29:34;5.50;;;1.70;;
3141;SDS011;1581;51.568;6.998;2023-03-23T10:32:10;6.10;;;1.87;;
3141;SDS011;1581;51.568;6.998;2023-03-23T10:34:42;8.80;;;2.13;;
3141;SDS011;1581;51.568;6.998;2023-03-23T10:37:16;3.50;;;1.97;;
3141;SDS011;1581;51.568;6.998;2023-03-23T10:39:49;1.53;;;1.20;;
3141;SDS011;1581;51.568;6.998;2023-03-23T10:42:26;3.63;;;1.40;;
3141;SDS011;1581;51.568;6.998;2023-03-23T10:45:00;6.00;;;1.37;;
3141;SDS011;1581;51.568;6.998;2023-03-23T10:47:43;3.77;;;1.60;;
3141;SDS011;1581;51.568;6.998;2023-03-23T10:50:29;2.57;;;1.30;;
3141;SDS011;1581;51.568;6.998;2023-03-23T10:52:59;4.27;;;1.40;;
3141;SDS011;1581;51.568;6.998;2023-03-23T10:55:37;3.60;;;1.00;;
3141;SDS011;1581;51.568;6.998;2023-03-23T10:58:09;2.77;;;1.00;;
3141;SDS011;1581;51.568;6.998;2023-03-23T11:00:43;3.10;;;1.50;;
3141;SDS011;1581;51.568;6.998;2023-03-23T11:03:24;3.00;;;1.23;;
3141;SDS011;1581;51.568;6.998;2023-03-23T11:06:06;2.67;;;1.20;;
3141;SDS011;1581;51.568;6.998;2023-03-23T11:08:37;4.50;;;1.20;;
3141;SDS011;1581;51.568;6.998;2023-03-23T11:11:16;9.27;;;1.50;;
3141;SDS011;1581;51.568;6.998;2023-03-23T11:13:47;1.40;;;1.30;;
3141;SDS011;1581;51.568;6.998;2023-03-23T11:16:25;1.97;;;1.17;;
3141;SDS011;1581;51.568;6.998;2023-03-23T11:18:57;2.70;;;1.40;;
3141;SDS011;1581;51.568;6.998;2023-03-23T11:21:39;2.80;;;1.27;;
3141;SDS011;1581;51.568;6.998;2023-03-23T11:24:12;9.17;;;1.90;;
3141;SDS011;1581;51.568;6.998;2023-03-23T11:26:42;9.63;;;2.10;;
3141;SDS011;1581;51.568;6.998;2023-03-23T11:29:13;3.43;;;1.30;;
3141;SDS011;1581;51.568;6.998;2023-03-23T11:31:45;4.20;;;1.70;;
3141;SDS011;1581;51.568;6.998;2023-03-23T11:34:18;3.90;;;1.30;;
3141;SDS011;1581;51.568;6.998;2023-03-23T11:36:51;7.30;;;1.93;;
3141;SDS011;1581;51.568;6.998;2023-03-23T11:39:26;4.20;;;1.57;;
3141;SDS011;1581;51.568;6.998;2023-03-23T11:41:57;3.90;;;1.20;;
3141;SDS011;1581;51.568;6.998;2023-03-23T11:44:32;3.20;;;1.10;;
3141;SDS011;1581;51.568;6.998;2023-03-23T11:47:20;3.53;;;1.30;;
3141;SDS011;1581;51.568;6.998;2023-03-23T11:50:00;1.60;;;1.07;;
3141;SDS011;1581;51.568;6.998;2023-03-23T11:52:45;2.60;;;1.40;;
3141;SDS011;1581;51.568;6.998;2023-03-23T11:55:22;6.70;;;1.47;;
3141;SDS011;1581;51.568;6.998;2023-03-23T11:58:00;7.00;;;1.63;;
3141;SDS011;1581;51.568;6.998;2023-03-23T12:00:38;6.47;;;1.37;;
3141;SDS011;1581;51.568;6.998;2023-03-23T12:07:01;7.83;;;2.10;;
3141;SDS011;1581;51.568;6.998;2023-03-23T12:10:02;10.43;;;2.20;;
3141;SDS011;1581;51.568;6.998;2023-03-23T12:12:45;8.77;;;1.93;;
3141;SDS011;1581;51.568;6.998;2023-03-23T12:15:27;4.13;;;1.67;;
3141;SDS011;1581;51.568;6.998;2023-03-23T12:18:05;7.47;;;2.33;;
3141;SDS011;1581;51.568;6.998;2023-03-23T12:20:47;10.03;;;1.87;;
3141;SDS011;1581;51.568;6.998;2023-03-23T12:23:32;5.90;;;2.47;;
3141;SDS011;1581;51.568;6.998;2023-03-23T12:26:18;3.50;;;1.63;;
3141;SDS011;1581;51.568;6.998;2023-03-23T12:28:59;4.30;;;2.47;;
3141;SDS011;1581;51.568;6.998;2023-03-23T12:32:01;3.73;;;2.13;;
3141;SDS011;1581;51.568;6.998;2023-03-23T12:34:58;7.23;;;2.97;;
3141;SDS011;1581;51.568;6.998;2023-03-23T12:37:50;4.30;;;2.73;;
3141;SDS011;1581;51.568;6.998;2023-03-23T12:40:36;5.53;;;4.07;;
3141;SDS011;1581;51.568;6.998;2023-03-23T12:43:22;9.30;;;4.30;;
3141;SDS011;1581;51.568;6.998;2023-03-23T12:46:14;7.87;;;4.23;;
3141;SDS011;1581;51.568;6.998;2023-03-23T12:49:16;7.07;;;3.60;;
3141;SDS011;1581;51.568;6.998;2023-03-23T12:51:59;6.33;;;3.73;;
3141;SDS011;1581;51.568;6.998;2023-03-23T12:54:40;9.00;;;4.37;;
3141;SDS011;1581;51.568;6.998;2023-03-23T12:57:18;13.17;;;3.73;;
3141;SDS011;1581;51.568;6.998;2023-03-23T13:00:02;6.93;;;3.53;;
3141;SDS011;1581;51.568;6.998;2023-03-23T13:02:40;6.20;;;2.80;;
3141;SDS011;1581;51.568;6.998;2023-03-23T13:05:24;6.47;;;3.20;;
3141;SDS011;1581;51.568;6.998;2023-03-23T13:08:01;5.30;;;2.90;;
3141;SDS011;1581;51.568;6.998;2023-03-23T13:10:42;5.77;;;3.40;;
3141;SDS011;1581;51.568;6.998;2023-03-23T13:13:17;5.30;;;3.00;;
3141;SDS011;1581;51.568;6.998;2023-03-23T13:15:56;4.00;;;3.60;;
3141;SDS011;1581;51.568;6.998;2023-03-23T13:18:43;5.20;;;2.43;;
3141;SDS011;1581;51.568;6.998;2023-03-23T13:21:27;9.90;;;2.83;;
3141;SDS011;1581;51.568;6.998;2023-03-23T13:24:02;7.43;;;4.30;;
3141;SDS011;1581;51.568;6.998;2023-03-23T13:26:38;6.10;;;3.37;;
3141;SDS011;1581;51.568;6.998;2023-03-23T13:29:10;4.80;;;2.70;;
3141;SDS011;1581;51.568;6.998;2023-03-23T13:31:43;3.65;;;2.30;;
3141;SDS011;1581;51.568;6.998;2023-03-23T13:34:14;4.63;;;2.63;;
3141;SDS011;1581;51.568;6.998;2023-03-23T13:36:52;5.25;;;2.92;;
3141;SDS011;1581;51.568;6.998;2023-03-23T13:39:23;4.25;;;2.17;;
3141;SDS011;1581;51.568;6.998;2023-03-23T13:42:03;4.25;;;2.42;;
3141;SDS011;1581;51.568;6.998;2023-03-23T13:44:54;3.10;;;2.10;;
3141;SDS011;1581;51.568;6.998;2023-03-23T13:47:36;6.63;;;2.40;;
3141;SDS011;1581;51.568;6.998;2023-03-23T13:50:10;4.22;;;2.72;;
3141;SDS011;1581;51.568;6.998;2023-03-23T13:52:52;6.00;;;2.00;;
3141;SDS011;1581;51.568;6.998;2023-03-23T13:55:30;5.53;;;2.70;;
3141;SDS011;1581;51.568;6.998;2023-03-23T13:58:20;11.73;;;2.63;;
3141;SDS011;1581;51.568;6.998;2023-03-23T14:01:01;5.00;;;2.53;;
3141;SDS011;1581;51.568;6.998;2023-03-23T14:03:42;5.27;;;2.47;;
3141;SDS011;1581;51.568;6.998;2023-03-23T14:06:15;7.67;;;2.30;;
3141;SDS011;1581;51.568;6.998;2023-03-23T14:08:48;4.33;;;1.80;;
3141;SDS011;1581;51.568;6.998;2023-03-23T14:11:20;7.73;;;2.10;;
3141;SDS011;1581;51.568;6.998;2023-03-23T14:14:01;3.13;;;1.70;;
3141;SDS011;1581;51.568;6.998;2023-03-23T14:16:35;5.70;;;2.53;;
3141;SDS011;1581;51.568;6.998;2023-03-23T14:19:13;9.40;;;1.97;;
3141;SDS011;1581;51.568;6.998;2023-03-23T14:21:53;6.00;;;2.43;;
3141;SDS011;1581;51.568;6.998;2023-03-23T14:24:25;6.50;;;2.73;;
3141;SDS011;1581;51.568;6.998;2023-03-23T14:27:01;6.00;;;2.10;;
3141;SDS011;1581;51.568;6.998;2023-03-23T14:29:37;8.67;;;2.00;;
3141;SDS011;1581;51.568;6.998;2023-03-23T14:32:06;13.77;;;2.70;;
3141;SDS011;1581;51.568;6.998;2023-03-23T14:34:40;3.57;;;2.53;;
3141;SDS011;1581;51.568;6.998;2023-03-23T14:37:09;4.43;;;2.97;;
3141;SDS011;1581;51.568;6.998;2023-03-23T14:39:43;5.43;;;3.30;;
3141;SDS011;1581;51.568;6.998;2023-03-23T14:42:13;7.73;;;3.20;;
3141;SDS011;1581;51.568;6.998;2023-03-23T14:44:46;5.00;;;2.60;;
3141;SDS011;1581;51.568;6.998;2023-03-23T14:47:18;6.25;;;2.40;;
3141;SDS011;1581;51.568;6.998;2023-03-23T14:50:21;4.43;;;2.05;;
3141;SDS011;1581;51.568;6.998;2023-03-23T14:52:56;2.55;;;1.48;;
3141;SDS011;1581;51.568;6.998;2023-03-23T14:55:41;2.55;;;1.63;;
3141;SDS011;1581;51.568;6.998;2023-03-23T14:58:20;3.17;;;1.55;;
3141;SDS011;1581;51.568;6.998;2023-03-23T15:04:45;3.92;;;1.77;;
3141;SDS011;1581;51.568;6.998;2023-03-23T15:07:38;3.45;;;1.88;;
3141;SDS011;1581;51.568;6.998;2023-03-23T15:10:54;1.83;;;1.58;;
3141;SDS011;1581;51.568;6.998;2023-03-23T15:13:47;2.63;;;1.80;;
3141;SDS011;1581;51.568;6.998;2023-03-23T15:16:25;6.35;;;2.22;;
3141;SDS011;1581;51.568;6.998;2023-03-23T15:19:04;4.50;;;1.98;;
3141;SDS011;1581;51.568;6.998;2023-03-23T15:21:46;3.38;;;1.77;;
3141;SDS011;1581;51.568;6.998;2023-03-23T15:24:27;2.88;;;1.65;;
3141;SDS011;1581;51.568;6.998;2023-03-23T15:27:11;2.50;;;1.63;;
3141;SDS011;1581;51.568;6.998;2023-03-23T15:29:52;4.38;;;1.42;;
3141;SDS011;1581;51.568;6.998;2023-03-23T15:32:31;4.10;;;1.20;;
3141;SDS011;1581;51.568;6.998;2023-03-23T15:35:13;4.97;;;2.10;;
3141;SDS011;1581;51.568;6.998;2023-03-23T15:37:51;3.03;;;1.38;;
3141;SDS011;1581;51.568;6.998;2023-03-23T15:40:27;3.42;;;1.75;;
3141;SDS011;1581;51.568;6.998;2023-03-23T15:43:14;3.35;;;1.15;;
3141;SDS011;1581;51.568;6.998;2023-03-23T15:45:54;4.43;;;1.70;;
3141;SDS011;1581;51.568;6.998;2023-03-23T15:48:29;3.05;;;1.60;;
3141;SDS011;1581;51.568;6.998;2023-03-23T15:51:04;2.90;;;1.65;;
3141;SDS011;1581;51.568;6.998;2023-03-23T15:53:36;2.88;;;1.55;;
3141;SDS011;1581;51.568;6.998;2023-03-23T15:56:08;2.45;;;1.58;;
3141;SDS011;1581;51.568;6.998;2023-03-23T15:58:41;3.85;;;1.88;;
3141;SDS011;1581;51.568;6.998;2023-03-23T16:01:14;2.38;;;1.73;;
3141;SDS011;1581;51.568;6.998;2023-03-23T16:03:54;4.65;;;1.48;;
3141;SDS011;1581;51.568;6.998;2023-03-23T16:06:34;4.03;;;1.45;;
3141;SDS011;1581;51.568;6.998;2023-03-23T16:09:07;6.10;;;1.75;;
3141;SDS011;1581;51.568;6.998;2023-03-23T16:11:42;4.97;;;1.38;;